createdAt,value
2022-11-24T00:02:44.035Z,47.50
2022-11-24T00:05:29.861Z,37.83
2022-11-24T00:08:15.346Z,52.00
2022-11-24T00:11:09.895Z,76.07
2022-11-24T00:13:56.096Z,54.00
2022-11-24T00:16:41.807Z,47.10
2022-11-24T00:19:29.339Z,49.20
2022-11-24T00:22:14.602Z,56.00
2022-11-24T00:25:00.130Z,51.43
2022-11-24T00:27:46.221Z,48.27
2022-11-24T00:30:33.712Z,38.63
2022-11-24T00:33:18.899Z,54.00
2022-11-24T00:36:04.513Z,48.30
2022-11-24T00:38:55.512Z,52.77
2022-11-24T00:41:42.064Z,55.87
2022-11-24T00:44:29.967Z,43.60
2022-11-24T00:47:15.610Z,47.43
2022-11-24T00:50:01.267Z,44.20
2022-11-24T00:52:51.395Z,38.93
2022-11-24T00:55:38.653Z,39.60
2022-11-24T00:58:27.127Z,45.90
2022-11-24T01:01:19.201Z,46.93
2022-11-24T01:04:07.170Z,50.97
2022-11-24T01:06:54.982Z,43.10
2022-11-24T01:09:43.291Z,51.53
2022-11-24T01:12:29.217Z,43.27
2022-11-24T01:15:14.704Z,46.20
2022-11-24T01:18:00.168Z,44.07
2022-11-24T01:20:51.421Z,40.70
2022-11-24T01:23:36.705Z,40.77
2022-11-24T01:26:26.531Z,44.73
2022-11-24T01:29:12.822Z,43.03
2022-11-24T01:31:58.189Z,40.90
2022-11-24T01:34:46.193Z,43.33
2022-11-24T01:37:32.061Z,50.40
2022-11-24T01:40:17.681Z,40.30
2022-11-24T01:43:02.998Z,41.00
2022-11-24T01:45:51.054Z,39.30
2022-11-24T01:48:46.713Z,36.80
2022-11-24T01:51:35.914Z,42.37
2022-11-24T01:54:34.734Z,46.80
2022-11-24T01:57:33.005Z,46.13
2022-11-24T02:00:21.241Z,43.90
2022-11-24T02:03:07.656Z,39.40
2022-11-24T02:06:12.123Z,46.90
2022-11-24T02:09:08.163Z,42.90
2022-11-24T02:11:55.142Z,35.20
2022-11-24T02:14:42.852Z,43.47
2022-11-24T02:17:28.509Z,37.80
2022-11-24T02:20:15.174Z,29.37
2022-11-24T02:23:26.432Z,44.07
2022-11-24T02:26:34.016Z,33.63
2022-11-24T02:29:20.909Z,41.00
2022-11-24T02:32:11.101Z,43.23
2022-11-24T02:35:05.269Z,41.03
2022-11-24T02:37:50.592Z,40.20
2022-11-24T02:40:36.904Z,32.23
2022-11-24T02:43:28.846Z,33.73
2022-11-24T02:46:14.397Z,40.23
2022-11-24T02:48:59.993Z,34.23
2022-11-24T02:51:47.416Z,41.23
2022-11-24T02:54:33.732Z,37.47
2022-11-24T02:57:20.220Z,32.20
2022-11-24T03:00:06.651Z,37.20
2022-11-24T03:02:52.336Z,40.40
2022-11-24T03:05:38.256Z,36.73
2022-11-24T03:08:23.839Z,41.03
2022-11-24T03:11:09.438Z,46.63
2022-11-24T03:13:54.904Z,37.93
2022-11-24T03:16:43.532Z,38.93
2022-11-24T03:19:28.926Z,36.30
2022-11-24T03:22:15.528Z,40.47
2022-11-24T03:25:02.247Z,41.77
2022-11-24T03:27:49.736Z,33.73
2022-11-24T03:30:34.902Z,34.53
2022-11-24T03:33:20.393Z,43.43
2022-11-24T03:36:12.815Z,47.23
2022-11-24T03:38:58.128Z,34.40
2022-11-24T03:41:43.736Z,37.57
2022-11-24T03:44:29.110Z,37.37
2022-11-24T03:47:14.581Z,37.53
2022-11-24T03:50:02.166Z,33.57
2022-11-24T03:52:47.491Z,46.77
2022-11-24T03:55:35.355Z,41.13
2022-11-24T03:58:24.290Z,39.03
2022-11-24T04:01:12.168Z,40.33
2022-11-24T04:04:00.781Z,32.13
2022-11-24T04:06:46.321Z,43.17
2022-11-24T04:09:33.757Z,45.43
2022-11-24T04:12:37.452Z,29.30
2022-11-24T04:15:25.655Z,51.90
2022-11-24T04:18:12.168Z,39.00
2022-11-24T04:20:58.094Z,33.93
2022-11-24T04:23:43.642Z,36.50
2022-11-24T04:26:31.733Z,40.90
2022-11-24T04:29:17.103Z,56.97
2022-11-24T04:32:02.303Z,41.37
2022-11-24T04:34:50.460Z,38.27
2022-11-24T04:37:38.023Z,38.00
2022-11-24T04:40:23.379Z,26.63
2022-11-24T04:43:10.656Z,33.40
2022-11-24T04:45:55.973Z,31.80
2022-11-24T04:48:42.318Z,49.20
2022-11-24T04:51:27.705Z,26.30
2022-11-24T04:54:14.273Z,31.67
2022-11-24T04:56:59.796Z,35.33
2022-11-24T04:59:47.400Z,34.00
2022-11-24T05:02:37.870Z,36.03
2022-11-24T05:05:25.192Z,51.80
2022-11-24T05:08:10.345Z,26.27
2022-11-24T05:10:56.002Z,30.00
2022-11-24T05:13:41.619Z,28.57
2022-11-24T05:16:26.933Z,32.50
2022-11-24T05:19:12.972Z,30.00
2022-11-24T05:21:58.493Z,29.93
2022-11-24T05:24:44.177Z,28.37
2022-11-24T05:27:29.984Z,32.43
2022-11-24T05:30:15.499Z,32.80
2022-11-24T05:33:08.330Z,28.70
2022-11-24T05:35:54.223Z,35.43
2022-11-24T05:38:39.392Z,28.20
2022-11-24T05:41:24.927Z,31.90
2022-11-24T05:44:12.273Z,36.10
2022-11-24T05:46:57.555Z,24.67
2022-11-24T05:49:43.229Z,29.30
2022-11-24T05:52:28.638Z,27.80
2022-11-24T05:55:16.926Z,23.97
2022-11-24T05:58:08.722Z,40.00
2022-11-24T06:00:53.997Z,27.80
2022-11-24T06:03:39.391Z,34.93
2022-11-24T06:06:25.042Z,24.20
2022-11-24T06:09:12.993Z,27.97
2022-11-24T06:11:58.490Z,21.00
2022-11-24T06:14:43.819Z,20.60
2022-11-24T06:17:32.289Z,26.00
2022-11-24T06:20:19.692Z,30.23
2022-11-24T06:23:04.879Z,25.33
2022-11-24T06:25:51.734Z,27.10
2022-11-24T06:28:37.103Z,29.83
2022-11-24T06:31:24.772Z,26.23
2022-11-24T06:34:12.029Z,23.03
2022-11-24T06:37:00.231Z,37.03
2022-11-24T06:39:45.898Z,25.33
2022-11-24T06:42:31.410Z,22.70
2022-11-24T06:45:17.043Z,25.63
2022-11-24T06:48:04.473Z,24.27
2022-11-24T06:50:52.351Z,26.53
2022-11-24T06:53:39.362Z,24.57
2022-11-24T06:56:25.331Z,33.67
2022-11-24T06:59:19.998Z,29.23
2022-11-24T07:02:07.817Z,33.27
2022-11-24T07:04:53.088Z,33.03
2022-11-24T07:07:41.215Z,26.77
2022-11-24T07:10:31.479Z,31.50
2022-11-24T07:13:17.290Z,30.23
2022-11-24T07:16:17.376Z,24.33
2022-11-24T07:19:05.633Z,27.63
2022-11-24T07:21:50.838Z,22.97
2022-11-24T07:24:38.857Z,23.17
2022-11-24T07:27:24.963Z,28.87
2022-11-24T07:30:12.207Z,21.30
2022-11-24T07:33:02.100Z,29.03
2022-11-24T07:35:48.058Z,25.00
2022-11-24T07:38:36.881Z,25.47
2022-11-24T07:41:22.210Z,23.33
2022-11-24T07:44:07.922Z,26.37
2022-11-24T07:46:53.762Z,25.63
2022-11-24T07:49:39.234Z,26.87
2022-11-24T07:52:27.109Z,19.97
2022-11-24T07:55:12.612Z,27.87
2022-11-24T07:58:03.986Z,25.63
2022-11-24T08:00:52.279Z,27.30
2022-11-24T08:03:40.892Z,29.07
2022-11-24T08:06:36.232Z,22.57
2022-11-24T08:09:27.283Z,23.53
2022-11-24T08:12:13.580Z,22.60
2022-11-24T08:14:59.377Z,24.00
2022-11-24T08:17:44.900Z,23.30
2022-11-24T08:20:32.479Z,21.03
2022-11-24T08:23:18.087Z,25.93
2022-11-24T08:26:09.366Z,21.93
2022-11-24T08:28:59.224Z,24.53
2022-11-24T08:31:44.905Z,18.93
2022-11-24T08:34:30.605Z,20.43
2022-11-24T08:37:15.804Z,24.03
2022-11-24T08:40:00.991Z,20.80
2022-11-24T08:42:48.632Z,19.30
2022-11-24T08:45:41.017Z,25.50
2022-11-24T08:48:28.270Z,21.93
2022-11-24T08:51:16.015Z,24.43
2022-11-24T08:54:03.469Z,18.03
2022-11-24T08:56:49.793Z,30.00
2022-11-24T08:59:38.364Z,25.90
2022-11-24T09:02:23.670Z,27.17
2022-11-24T09:05:28.769Z,22.70
2022-11-24T09:08:14.738Z,22.23
2022-11-24T09:11:09.291Z,23.80
2022-11-24T09:13:55.430Z,27.57
2022-11-24T09:16:41.174Z,23.50
2022-11-24T09:19:26.897Z,20.77
2022-11-24T09:22:12.575Z,25.63
2022-11-24T09:24:58.442Z,28.00
2022-11-24T09:27:44.414Z,21.00
2022-11-24T09:30:30.046Z,22.57
2022-11-24T09:33:18.189Z,32.07
2022-11-24T09:36:05.342Z,27.80
2022-11-24T09:38:51.094Z,27.30
2022-11-24T09:41:48.637Z,22.53
2022-11-24T09:44:55.820Z,23.97
2022-11-24T09:48:04.148Z,29.03
2022-11-24T09:50:52.800Z,29.50
2022-11-24T09:53:46.149Z,23.97
2022-11-24T09:56:35.605Z,26.07
2022-11-24T09:59:26.313Z,25.63
2022-11-24T10:02:13.288Z,29.17
2022-11-24T10:04:59.534Z,27.43
2022-11-24T10:08:18.690Z,28.53
2022-11-24T10:11:12.870Z,34.40
2022-11-24T10:14:21.398Z,19.03
2022-11-24T10:17:25.783Z,25.13
2022-11-24T10:20:29.598Z,20.87
2022-11-24T10:23:17.528Z,27.27
2022-11-24T10:26:15.822Z,19.30
2022-11-24T10:29:11.206Z,25.60
2022-11-24T10:32:02.629Z,20.77
2022-11-24T10:34:51.451Z,21.97
2022-11-24T10:37:43.286Z,19.37
2022-11-24T10:43:43.089Z,24.27
2022-11-24T10:46:31.536Z,20.60
2022-11-24T10:49:28.328Z,19.50
2022-11-24T10:52:16.046Z,16.63
2022-11-24T10:55:04.599Z,20.10
2022-11-24T10:57:52.278Z,20.67
2022-11-24T11:00:37.957Z,22.43
2022-11-24T11:03:29.973Z,19.97
2022-11-24T11:06:27.092Z,15.83
2022-11-24T11:09:22.596Z,21.13
2022-11-24T11:12:43.368Z,19.30
2022-11-24T11:15:30.999Z,18.80
2022-11-24T11:18:18.240Z,21.73
2022-11-24T11:21:05.266Z,24.10
2022-11-24T11:23:51.844Z,17.43
2022-11-24T11:26:38.219Z,18.97
2022-11-24T11:35:40.172Z,22.77
2022-11-24T11:38:33.404Z,19.90
2022-11-24T11:41:43.243Z,16.17
2022-11-24T11:44:40.608Z,21.60
2022-11-24T11:47:33.453Z,20.10
2022-11-24T11:50:25.747Z,19.83
2022-11-24T11:53:45.125Z,21.03
2022-11-24T11:56:37.200Z,24.47
2022-11-24T11:59:28.204Z,16.67
2022-11-24T12:02:46.094Z,20.17
2022-11-24T12:06:09.179Z,19.60
2022-11-24T12:09:19.828Z,20.37
2022-11-24T12:12:18.943Z,18.33
2022-11-24T12:15:10.816Z,21.47
2022-11-24T12:18:48.530Z,21.23
2022-11-24T12:22:04.087Z,21.83
2022-11-24T12:24:57.557Z,16.53
2022-11-24T12:28:20.622Z,20.07
2022-11-24T12:31:11.931Z,19.93
2022-11-24T12:34:38.033Z,16.87
2022-11-24T12:37:43.484Z,19.70
2022-11-24T12:40:46.706Z,17.07
2022-11-24T12:43:51.389Z,17.90
2022-11-24T12:46:59.250Z,22.40
2022-11-24T12:50:12.980Z,22.07
2022-11-24T12:53:10.858Z,21.70
2022-11-24T12:56:08.400Z,20.07
2022-11-24T12:59:05.982Z,21.80
2022-11-24T13:01:54.412Z,22.77
2022-11-24T13:04:40.205Z,22.20
2022-11-24T13:07:46.672Z,17.47
2022-11-24T13:10:55.323Z,20.60
2022-11-24T13:14:13.932Z,23.13
2022-11-24T13:20:39.095Z,20.53
2022-11-24T13:23:28.059Z,26.77
2022-11-24T13:26:27.474Z,19.67
2022-11-24T13:29:27.914Z,19.60
2022-11-24T13:32:14.425Z,17.30
2022-11-24T13:35:12.244Z,19.90
2022-11-24T13:38:00.212Z,21.20
2022-11-24T13:41:06.344Z,19.90
2022-11-24T13:44:16.080Z,20.47
2022-11-24T13:47:22.321Z,18.33
2022-11-24T13:50:14.271Z,19.57
2022-11-24T13:53:40.870Z,18.10
2022-11-24T13:56:28.129Z,21.50
2022-11-24T13:59:34.190Z,20.00
2022-11-24T14:02:23.366Z,20.33
2022-11-24T14:05:14.220Z,20.37
2022-11-24T14:08:03.068Z,19.90
2022-11-24T14:10:52.238Z,24.70
2022-11-24T14:13:37.561Z,19.83
2022-11-24T14:16:24.184Z,21.43
2022-11-24T14:19:11.079Z,23.00
2022-11-24T14:21:56.813Z,20.83
2022-11-24T14:24:45.300Z,24.30
2022-11-24T14:27:40.131Z,21.10
2022-11-24T14:30:28.500Z,20.73
2022-11-24T14:33:15.913Z,19.23
2022-11-24T14:36:01.348Z,22.83
2022-11-24T14:38:49.196Z,25.37
2022-11-24T14:41:34.846Z,29.30
2022-11-24T14:44:26.433Z,23.87
2022-11-24T14:47:25.709Z,27.43
2022-11-24T14:50:19.704Z,24.63
2022-11-24T14:53:14.575Z,21.87
2022-11-24T14:56:27.044Z,22.20
2022-11-24T14:59:26.617Z,28.07
2022-11-24T15:02:57.294Z,27.77
2022-11-24T15:05:58.452Z,23.80
2022-11-24T15:08:49.306Z,21.90
2022-11-24T15:11:35.127Z,25.00
2022-11-24T15:14:40.825Z,23.20
2022-11-24T15:17:31.109Z,24.80
2022-11-24T15:20:41.650Z,23.60
2022-11-24T15:23:29.649Z,21.53
2022-11-24T15:26:18.876Z,22.03
2022-11-24T15:29:06.470Z,26.07
2022-11-24T15:31:53.004Z,25.30
2022-11-24T15:34:38.872Z,24.80
2022-11-24T15:37:24.271Z,24.73
2022-11-24T15:40:11.292Z,23.20
2022-11-24T15:42:59.641Z,23.80
2022-11-24T15:45:51.104Z,22.17
2022-11-24T15:48:39.220Z,21.47
2022-11-24T15:51:28.462Z,22.23
2022-11-24T15:54:16.000Z,28.00
2022-11-24T15:57:02.475Z,27.20
2022-11-24T15:59:48.901Z,26.00
2022-11-24T16:02:39.655Z,26.07
2022-11-24T16:05:25.227Z,27.47
2022-11-24T16:08:15.841Z,31.20
2022-11-24T16:11:01.424Z,29.30
2022-11-24T16:13:52.020Z,32.67
2022-11-24T16:16:40.680Z,31.27
2022-11-24T16:19:26.771Z,24.67
2022-11-24T16:22:17.276Z,25.77
2022-11-24T16:25:04.265Z,27.17
2022-11-24T16:27:51.953Z,29.47
2022-11-24T16:30:40.336Z,27.53
2022-11-24T16:33:25.781Z,30.73
2022-11-24T16:36:11.383Z,24.53
2022-11-24T16:38:56.938Z,26.27
2022-11-24T16:41:42.432Z,25.37
2022-11-24T16:44:28.023Z,28.87
2022-11-24T16:47:13.692Z,28.47
2022-11-24T16:49:58.955Z,31.10
2022-11-24T16:52:46.796Z,25.30
2022-11-24T16:55:32.430Z,29.53
2022-11-24T16:58:20.158Z,32.60
2022-11-24T17:01:11.519Z,28.40
2022-11-24T17:03:57.193Z,29.27
2022-11-24T17:06:42.806Z,28.67
2022-11-24T17:09:28.688Z,25.53
2022-11-24T17:12:14.408Z,29.63
2022-11-24T17:15:24.973Z,29.40
2022-11-24T17:21:16.076Z,23.30
2022-11-24T17:24:07.026Z,37.27
2022-11-24T17:26:52.757Z,28.23
2022-11-24T17:29:37.939Z,25.73
2022-11-24T17:32:23.157Z,26.37
2022-11-24T17:35:11.922Z,25.27
2022-11-24T17:37:58.266Z,26.00
2022-11-24T17:40:52.277Z,25.67
2022-11-24T17:43:37.965Z,23.17
2022-11-24T17:46:27.783Z,23.23
2022-11-24T17:49:15.522Z,26.13
2022-11-24T17:52:00.951Z,26.30
2022-11-24T17:54:49.014Z,27.90
2022-11-24T17:57:37.243Z,27.97
2022-11-24T18:00:25.362Z,23.00
2022-11-24T18:03:10.719Z,27.90
2022-11-24T18:05:56.540Z,26.30
2022-11-24T18:08:43.849Z,28.57
2022-11-24T18:11:32.164Z,26.97
2022-11-24T18:14:18.071Z,27.27
2022-11-24T18:17:05.563Z,21.30
2022-11-24T18:19:51.361Z,23.40
2022-11-24T18:23:03.920Z,25.03
2022-11-24T18:25:43.296Z,24.30
2022-11-24T18:28:31.043Z,28.07
2022-11-24T18:31:20.729Z,26.77
2022-11-24T18:34:07.015Z,24.33
2022-11-24T18:36:53.060Z,24.90
2022-11-24T18:39:42.035Z,25.03
2022-11-24T18:42:28.332Z,26.70
2022-11-24T18:45:13.642Z,23.97
2022-11-24T18:47:59.380Z,23.47
2022-11-24T18:50:49.172Z,23.07
2022-11-24T18:53:34.702Z,24.37
2022-11-24T18:56:20.249Z,26.33
2022-11-24T18:59:05.780Z,27.53
2022-11-24T19:01:51.651Z,27.10
2022-11-24T19:04:39.983Z,33.17
2022-11-24T19:07:25.334Z,23.10
2022-11-24T19:10:15.946Z,23.50
2022-11-24T19:13:01.822Z,26.80
2022-11-24T19:15:48.521Z,30.13
2022-11-24T19:18:37.135Z,24.80
2022-11-24T19:21:22.859Z,28.80
2022-11-24T19:24:13.138Z,33.50
2022-11-24T19:27:01.857Z,27.33
2022-11-24T19:29:47.968Z,28.40
2022-11-24T19:32:33.679Z,25.20
2022-11-24T19:35:21.309Z,30.50
2022-11-24T19:38:06.683Z,30.00
2022-11-24T19:40:52.339Z,25.30
2022-11-24T19:43:38.067Z,26.63
2022-11-24T19:46:27.988Z,29.70
2022-11-24T19:49:16.478Z,26.07
2022-11-24T19:52:01.853Z,31.30
2022-11-24T19:54:47.502Z,29.67
2022-11-24T19:57:32.754Z,31.90
2022-11-24T20:00:19.134Z,24.20
2022-11-24T20:03:05.078Z,25.67
2022-11-24T20:05:58.823Z,28.87
2022-11-24T20:08:45.106Z,30.20
2022-11-24T20:11:33.053Z,32.80
2022-11-24T20:14:19.242Z,28.30
2022-11-24T20:17:06.717Z,28.57
2022-11-24T20:19:54.546Z,32.20
2022-11-24T20:22:44.522Z,29.33
2022-11-24T20:25:30.477Z,25.10
2022-11-24T20:28:18.387Z,32.43
2022-11-24T20:31:15.660Z,26.47
2022-11-24T20:34:08.623Z,36.90
2022-11-24T20:36:54.003Z,28.00
2022-11-24T20:39:42.563Z,26.10
2022-11-24T20:42:28.036Z,30.07
2022-11-24T20:45:15.965Z,28.27
2022-11-24T20:48:01.802Z,32.90
2022-11-24T20:50:51.413Z,29.70
2022-11-24T20:53:40.769Z,27.73
2022-11-24T20:56:31.975Z,33.07
2022-11-24T20:59:21.569Z,37.63
2022-11-24T21:02:09.811Z,37.87
2022-11-24T21:04:57.926Z,44.87
2022-11-24T21:07:43.513Z,34.03
2022-11-24T21:10:29.281Z,48.70
2022-11-24T21:13:14.569Z,45.67
2022-11-24T21:16:02.039Z,52.77
2022-11-24T21:18:51.020Z,42.43
2022-11-24T21:21:37.503Z,39.63
2022-11-24T21:24:25.235Z,40.60
2022-11-24T21:27:10.641Z,41.60
2022-11-24T21:29:55.876Z,54.27
2022-11-24T21:32:43.986Z,35.10
2022-11-24T21:35:29.746Z,28.57
2022-11-24T21:38:16.207Z,36.27
2022-11-24T21:41:07.220Z,41.00
2022-11-24T21:43:55.897Z,34.70
2022-11-24T21:46:46.166Z,36.33
2022-11-24T21:49:33.871Z,36.63
2022-11-24T21:52:19.469Z,36.80
2022-11-24T21:55:12.870Z,41.47
2022-11-24T21:58:02.371Z,39.77
2022-11-24T22:00:48.100Z,42.43
2022-11-24T22:03:35.952Z,34.00
2022-11-24T22:06:21.837Z,38.47
2022-11-24T22:09:07.261Z,42.27
2022-11-24T22:11:53.122Z,33.93
2022-11-24T22:14:40.467Z,34.47
2022-11-24T22:17:31.004Z,41.87
2022-11-24T22:20:18.902Z,35.30
2022-11-24T22:23:09.152Z,28.67
2022-11-24T22:25:57.534Z,43.17
2022-11-24T22:28:43.947Z,36.60
2022-11-24T22:31:31.827Z,34.27
2022-11-24T22:34:20.183Z,32.73
2022-11-24T22:37:05.742Z,33.03
2022-11-24T22:39:54.574Z,25.50
2022-11-24T22:42:39.935Z,29.77
2022-11-24T22:45:28.203Z,24.80
2022-11-24T22:48:13.977Z,25.37
2022-11-24T22:51:17.638Z,39.17
2022-11-24T22:54:04.372Z,28.47
2022-11-24T22:56:50.075Z,33.63
2022-11-24T22:59:39.860Z,27.53
2022-11-24T23:02:25.442Z,27.97
2022-11-24T23:05:18.012Z,32.00
2022-11-24T23:08:08.453Z,36.33
2022-11-24T23:10:59.394Z,33.93
2022-11-24T23:13:45.278Z,34.90
2022-11-24T23:16:32.970Z,34.07
2022-11-24T23:19:19.763Z,28.80
2022-11-24T23:22:05.189Z,30.43
2022-11-24T23:24:52.850Z,25.37
2022-11-24T23:27:41.119Z,35.47
2022-11-24T23:30:26.549Z,26.87
2022-11-24T23:33:12.300Z,33.23
2022-11-24T23:36:04.307Z,30.70
2022-11-24T23:38:49.836Z,29.20
2022-11-24T23:41:35.717Z,45.80
2022-11-24T23:44:26.983Z,43.20
2022-11-24T23:47:12.479Z,32.97
2022-11-24T23:49:58.555Z,25.87
2022-11-24T23:52:44.080Z,30.87
2022-11-24T23:55:30.022Z,27.10
2022-11-24T23:58:15.330Z,34.87
